createdAt,value
2023-01-01T00:00:11.673Z,1005.45
2023-01-01T00:01:11.544Z,1005.44
2023-01-01T00:03:15.508Z,1005.47
2023-01-01T00:04:15.578Z,1005.48
2023-01-01T00:06:19.433Z,1005.46
2023-01-01T00:07:19.427Z,1005.48
2023-01-01T00:09:23.375Z,1005.42
2023-01-01T00:10:23.349Z,1005.43
2023-01-01T00:12:27.315Z,1005.43
2023-01-01T00:13:27.281Z,1005.42
2023-01-01T00:15:31.238Z,1005.41
2023-01-01T00:16:31.253Z,1005.43
2023-01-01T00:18:35.169Z,1005.45
2023-01-01T00:19:35.143Z,1005.49
2023-01-01T00:21:39.111Z,1005.44
2023-01-01T00:22:55.789Z,1005.45
2023-01-01T00:24:43.039Z,1005.45
2023-01-01T00:25:43.021Z,1005.47
2023-01-01T00:27:46.974Z,1005.42
2023-01-01T00:28:46.947Z,1005.39
2023-01-01T00:30:39.842Z,1005.41
2023-01-01T00:31:39.847Z,1005.43
2023-01-01T00:33:43.765Z,1005.37
2023-01-01T00:34:43.761Z,1005.40
2023-01-01T00:36:47.717Z,1005.36
2023-01-01T00:37:47.695Z,1005.37
2023-01-01T00:39:40.768Z,1005.42
2023-01-01T00:40:40.763Z,1005.40
2023-01-01T00:42:44.705Z,1005.40
2023-01-01T00:43:44.685Z,1005.40
2023-01-01T00:45:48.723Z,1005.40
2023-01-01T00:46:48.624Z,1005.39
2023-01-01T00:48:52.586Z,1005.37
2023-01-01T00:49:52.563Z,1005.32
2023-01-01T00:51:56.516Z,1005.25
2023-01-01T00:52:56.502Z,1005.25
2023-01-01T00:55:00.450Z,1005.28
2023-01-01T00:56:00.428Z,1005.31
2023-01-01T00:58:04.375Z,1005.24
2023-01-01T00:59:04.357Z,1005.29
2023-01-01T01:00:57.285Z,1005.32
2023-01-01T01:01:57.358Z,1005.29
2023-01-01T01:04:01.165Z,1005.27
2023-01-01T01:05:01.152Z,1005.29
2023-01-01T01:07:05.283Z,1005.27
2023-01-01T01:08:05.091Z,1005.28
2023-01-01T01:10:09.049Z,1005.25
2023-01-01T01:11:09.058Z,1005.34
2023-01-01T01:13:12.973Z,1005.28
2023-01-01T01:14:12.948Z,1005.30
2023-01-01T01:16:16.987Z,1005.30
2023-01-01T01:17:16.887Z,1005.32
2023-01-01T01:19:20.837Z,1005.29
2023-01-01T01:20:20.821Z,1005.30
2023-01-01T01:22:13.963Z,1005.27
2023-01-01T01:23:13.944Z,1005.29
2023-01-01T01:25:18.388Z,1005.32
2023-01-01T01:26:18.377Z,1005.32
2023-01-01T01:27:18.366Z,1005.33
2023-01-01T01:28:18.357Z,1005.33
2023-01-01T01:29:18.351Z,1005.27
2023-01-01T01:30:18.339Z,1005.31
2023-01-01T01:31:18.615Z,1005.27
2023-01-01T01:32:18.328Z,1005.27
2023-01-01T01:33:18.310Z,1005.28
2023-01-01T01:34:22.527Z,1005.30
2023-01-01T01:35:18.295Z,1005.28
2023-01-01T01:36:18.290Z,1005.23
2023-01-01T01:37:18.282Z,1005.17
2023-01-01T01:38:18.271Z,1005.16
2023-01-01T01:39:18.264Z,1005.19
2023-01-01T01:40:18.260Z,1005.19
2023-01-01T01:41:27.419Z,1005.22
2023-01-01T01:42:18.242Z,1005.24
2023-01-01T01:43:18.228Z,1005.24
2023-01-01T01:44:18.225Z,1005.24
2023-01-01T01:45:18.213Z,1005.21
2023-01-01T01:46:18.254Z,1005.22
2023-01-01T01:47:18.195Z,1005.22
2023-01-01T01:48:18.210Z,1005.23
2023-01-01T01:49:18.177Z,1005.20
2023-01-01T01:50:18.172Z,1005.22
2023-01-01T01:51:18.162Z,1005.24
2023-01-01T01:52:18.156Z,1005.23
2023-01-01T01:53:18.157Z,1005.23
2023-01-01T01:54:18.137Z,1005.22
2023-01-01T01:55:18.127Z,1005.20
2023-01-01T01:56:18.119Z,1005.26
2023-01-01T01:57:18.115Z,1005.22
2023-01-01T01:58:18.102Z,1005.22
2023-01-01T01:59:18.111Z,1005.23
2023-01-01T02:00:18.081Z,1005.19
2023-01-01T02:01:18.234Z,1005.21
2023-01-01T02:02:18.241Z,1005.20
2023-01-01T02:03:18.165Z,1005.25
2023-01-01T02:04:18.060Z,1005.29
2023-01-01T02:05:18.058Z,1005.28
2023-01-01T02:06:18.035Z,1005.29
2023-01-01T02:07:18.037Z,1005.31
2023-01-01T02:08:18.026Z,1005.31
2023-01-01T02:09:18.013Z,1005.27
2023-01-01T02:10:18.013Z,1005.29
2023-01-01T02:11:21.914Z,1005.29
2023-01-01T02:12:17.983Z,1005.31
2023-01-01T02:13:17.967Z,1005.31
2023-01-01T02:14:17.962Z,1005.31
2023-01-01T02:15:17.952Z,1005.38
2023-01-01T02:16:17.976Z,1005.40
2023-01-01T02:17:17.942Z,1005.38
2023-01-01T02:18:17.928Z,1005.34
2023-01-01T02:19:17.910Z,1005.33
2023-01-01T02:20:17.910Z,1005.36
2023-01-01T02:21:17.898Z,1005.34
2023-01-01T02:22:17.895Z,1005.36
2023-01-01T02:23:17.889Z,1005.37
2023-01-01T02:24:17.879Z,1005.36
2023-01-01T02:25:17.871Z,1005.35
2023-01-01T02:26:17.855Z,1005.32
2023-01-01T02:27:17.847Z,1005.31
2023-01-01T02:28:17.841Z,1005.33
2023-01-01T02:29:17.825Z,1005.30
2023-01-01T02:30:17.834Z,1005.33
2023-01-01T02:31:23.037Z,1005.37
2023-01-01T02:32:17.803Z,1005.36
2023-01-01T02:33:17.792Z,1005.39
2023-01-01T02:34:17.790Z,1005.41
2023-01-01T02:35:17.773Z,1005.48
2023-01-01T02:36:17.775Z,1005.43
2023-01-01T02:37:17.758Z,1005.43
2023-01-01T02:38:17.757Z,1005.44
2023-01-01T02:39:17.744Z,1005.44
2023-01-01T02:40:17.735Z,1005.52
2023-01-01T02:41:17.720Z,1005.50
2023-01-01T02:42:17.709Z,1005.47
2023-01-01T02:43:23.027Z,1005.50
2023-01-01T02:44:17.699Z,1005.54
2023-01-01T02:45:17.685Z,1005.52
2023-01-01T02:46:38.679Z,1005.59
2023-01-01T02:47:17.668Z,1005.61
2023-01-01T02:48:17.666Z,1005.68
2023-01-01T02:49:17.662Z,1005.66
2023-01-01T02:50:17.639Z,1005.63
2023-01-01T02:51:17.639Z,1005.67
2023-01-01T02:52:17.626Z,1005.74
2023-01-01T02:53:17.615Z,1005.73
2023-01-01T02:54:17.604Z,1005.77
2023-01-01T02:55:17.596Z,1005.78
2023-01-01T02:56:17.582Z,1005.79
2023-01-01T02:57:17.577Z,1005.77
2023-01-01T02:58:17.571Z,1005.76
2023-01-01T02:59:17.560Z,1005.72
2023-01-01T03:00:17.542Z,1005.71
2023-01-01T03:01:17.632Z,1005.76
2023-01-01T03:02:17.970Z,1005.75
2023-01-01T03:03:17.569Z,1005.76
2023-01-01T03:04:17.546Z,1005.75
2023-01-01T03:05:17.504Z,1005.71
2023-01-01T03:06:17.495Z,1005.75
2023-01-01T03:07:17.491Z,1005.75
2023-01-01T03:08:17.498Z,1005.76
2023-01-01T03:09:17.469Z,1005.71
2023-01-01T03:10:17.516Z,1005.71
2023-01-01T03:11:17.490Z,1005.72
2023-01-01T03:12:17.442Z,1005.74
2023-01-01T03:13:17.440Z,1005.75
2023-01-01T03:14:17.424Z,1005.73
2023-01-01T03:15:17.415Z,1005.73
2023-01-01T03:16:17.449Z,1005.72
2023-01-01T03:17:17.398Z,1005.70
2023-01-01T03:18:17.393Z,1005.71
2023-01-01T03:19:17.383Z,1005.68
2023-01-01T03:20:24.552Z,1005.72
2023-01-01T03:22:21.336Z,1005.70
2023-01-01T03:23:21.315Z,1005.73
2023-01-01T03:25:25.263Z,1005.74
2023-01-01T03:26:25.253Z,1005.71
2023-01-01T03:28:29.203Z,1005.64
2023-01-01T03:29:29.189Z,1005.69
2023-01-01T03:31:22.090Z,1005.69
2023-01-01T03:32:22.049Z,1005.69
2023-01-01T03:34:25.997Z,1005.69
2023-01-01T03:35:25.976Z,1005.70
2023-01-01T03:37:29.925Z,1005.65
2023-01-01T03:38:29.921Z,1005.66
2023-01-01T03:40:33.916Z,1005.65
2023-01-01T03:41:33.850Z,1005.70
2023-01-01T03:43:37.813Z,1005.68
2023-01-01T03:44:37.783Z,1005.69
2023-01-01T03:46:41.745Z,1005.71
2023-01-01T03:47:41.716Z,1005.74
2023-01-01T03:49:45.677Z,1005.70
2023-01-01T03:50:45.652Z,1005.73
2023-01-01T03:52:49.631Z,1005.73
2023-01-01T03:53:49.594Z,1005.70
2023-01-01T03:55:53.563Z,1005.74
2023-01-01T03:56:53.527Z,1005.71
2023-01-01T03:58:57.485Z,1005.74
2023-01-01T03:59:57.461Z,1005.73
2023-01-01T04:02:01.573Z,1005.66
2023-01-01T04:03:01.422Z,1005.63
2023-01-01T04:05:05.395Z,1005.60
2023-01-01T04:06:05.342Z,1005.60
2023-01-01T04:08:09.298Z,1005.59
2023-01-01T04:09:09.281Z,1005.54
2023-01-01T04:11:02.187Z,1005.58
2023-01-01T04:12:02.180Z,1005.67
2023-01-01T04:14:06.104Z,1005.65
2023-01-01T04:15:06.071Z,1005.63
2023-01-01T04:17:10.015Z,1005.64
2023-01-01T04:18:10.005Z,1005.59
2023-01-01T04:20:14.357Z,1005.64
2023-01-01T04:21:13.935Z,1005.60
2023-01-01T04:23:17.880Z,1005.67
2023-01-01T04:24:17.863Z,1005.67
2023-01-01T04:26:21.815Z,1005.75
2023-01-01T04:27:21.792Z,1005.76
2023-01-01T04:29:25.780Z,1005.78
2023-01-01T04:30:25.736Z,1005.77
2023-01-01T04:32:29.667Z,1005.82
2023-01-01T04:33:29.657Z,1005.83
2023-01-01T04:35:33.602Z,1005.85
2023-01-01T04:36:33.606Z,1005.84
2023-01-01T04:38:37.542Z,1005.86
2023-01-01T04:39:37.517Z,1005.88
2023-01-01T04:41:30.423Z,1005.81
2023-01-01T04:42:30.427Z,1005.75
2023-01-01T04:44:34.350Z,1005.78
2023-01-01T04:45:34.337Z,1005.83
2023-01-01T04:47:38.280Z,1005.87
2023-01-01T04:48:38.265Z,1005.84
2023-01-01T04:50:42.255Z,1005.82
2023-01-01T04:51:42.212Z,1005.83
2023-01-01T04:53:35.307Z,1005.81
2023-01-01T04:54:35.276Z,1005.81
2023-01-01T04:56:39.238Z,1005.75
2023-01-01T04:57:39.211Z,1005.71
2023-01-01T04:59:43.569Z,1005.82
2023-01-01T05:00:43.266Z,1005.87
2023-01-01T05:02:47.234Z,1005.78
2023-01-01T05:03:47.178Z,1005.89
2023-01-01T05:05:51.563Z,1005.89
2023-01-01T05:06:51.109Z,1005.81
2023-01-01T05:08:55.062Z,1005.82
2023-01-01T05:09:55.045Z,1005.86
2023-01-01T05:11:58.989Z,1005.84
2023-01-01T05:12:58.971Z,1005.84
2023-01-01T05:15:02.915Z,1005.86
2023-01-01T05:16:02.926Z,1005.88
2023-01-01T05:18:06.841Z,1005.90
2023-01-01T05:19:06.829Z,1005.83
2023-01-01T05:20:59.711Z,1005.90
2023-01-01T05:22:03.971Z,1005.91
2023-01-01T05:24:03.633Z,1005.85
2023-01-01T05:25:03.607Z,1005.94
2023-01-01T05:27:07.561Z,1005.82
2023-01-01T05:28:07.541Z,1005.84
2023-01-01T05:30:11.499Z,1005.90
2023-01-01T05:31:11.484Z,1005.91
2023-01-01T05:33:15.421Z,1005.86
2023-01-01T05:34:15.421Z,1005.88
2023-01-01T05:36:19.360Z,1005.92
2023-01-01T05:37:19.338Z,1005.89
2023-01-01T05:39:23.297Z,1005.90
2023-01-01T05:40:23.280Z,1005.90
2023-01-01T05:42:27.249Z,1005.89
2023-01-01T05:43:27.232Z,1005.83
2023-01-01T05:45:31.233Z,1005.80
2023-01-01T05:46:31.170Z,1005.83
2023-01-01T05:48:35.113Z,1005.86
2023-01-01T05:49:35.097Z,1005.83
2023-01-01T05:51:28.009Z,1005.83
2023-01-01T05:52:27.956Z,1005.84
2023-01-01T05:54:31.905Z,1005.81
2023-01-01T05:55:31.887Z,1005.83
2023-01-01T05:57:35.857Z,1005.83
2023-01-01T05:58:35.831Z,1005.82
2023-01-01T06:00:39.788Z,1005.83
2023-01-01T06:01:45.528Z,1005.79
2023-01-01T06:03:43.739Z,1005.87
2023-01-01T06:04:43.734Z,1005.88
2023-01-01T06:06:47.667Z,1005.92
2023-01-01T06:07:48.800Z,1005.92
2023-01-01T06:09:51.587Z,1005.97
2023-01-01T06:10:51.610Z,1006.02
2023-01-01T06:12:55.524Z,1006.10
2023-01-01T06:13:55.509Z,1006.10
2023-01-01T06:15:59.462Z,1006.16
2023-01-01T06:16:59.454Z,1006.21
2023-01-01T06:19:03.386Z,1006.20
2023-01-01T06:20:03.369Z,1006.23
2023-01-01T06:22:07.499Z,1006.19
2023-01-01T06:23:07.434Z,1006.21
2023-01-01T06:25:11.893Z,1006.15
2023-01-01T06:26:11.888Z,1006.12
2023-01-01T06:27:11.852Z,1006.12
2023-01-01T06:28:11.839Z,1006.11
2023-01-01T06:29:11.835Z,1006.13
2023-01-01T06:30:11.821Z,1006.12
2023-01-01T06:31:11.873Z,1006.11
2023-01-01T06:32:11.804Z,1006.17
2023-01-01T06:33:11.789Z,1006.19
2023-01-01T06:34:11.817Z,1006.22
2023-01-01T06:35:11.771Z,1006.19
2023-01-01T06:36:11.776Z,1006.26
2023-01-01T06:37:11.757Z,1006.29
2023-01-01T06:38:11.744Z,1006.30
2023-01-01T06:39:11.736Z,1006.34
2023-01-01T06:40:11.731Z,1006.31
2023-01-01T06:41:11.711Z,1006.37
2023-01-01T06:42:11.714Z,1006.36
2023-01-01T06:43:11.695Z,1006.38
2023-01-01T06:44:11.686Z,1006.40
2023-01-01T06:45:11.676Z,1006.42
2023-01-01T06:46:11.687Z,1006.50
2023-01-01T06:47:11.655Z,1006.47
2023-01-01T06:48:11.641Z,1006.52
2023-01-01T06:49:11.635Z,1006.52
2023-01-01T06:50:11.625Z,1006.51
2023-01-01T06:51:11.638Z,1006.52
2023-01-01T06:52:11.613Z,1006.52
2023-01-01T06:53:11.590Z,1006.53
2023-01-01T06:54:11.601Z,1006.51
2023-01-01T06:55:11.576Z,1006.44
2023-01-01T06:56:11.565Z,1006.50
2023-01-01T06:57:11.556Z,1006.49
2023-01-01T06:58:11.568Z,1006.48
2023-01-01T06:59:11.551Z,1006.55
2023-01-01T07:00:11.521Z,1006.53
2023-01-01T07:01:11.638Z,1006.52
2023-01-01T07:02:11.762Z,1006.52
2023-01-01T07:03:11.642Z,1006.51
2023-01-01T07:04:11.492Z,1006.49
2023-01-01T07:05:11.483Z,1006.49
2023-01-01T07:06:11.466Z,1006.51
2023-01-01T07:07:11.452Z,1006.47
2023-01-01T07:08:11.440Z,1006.49
2023-01-01T07:09:11.450Z,1006.43
2023-01-01T07:10:11.424Z,1006.44
2023-01-01T07:11:11.418Z,1006.41
2023-01-01T07:12:11.404Z,1006.42
2023-01-01T07:13:11.394Z,1006.43
2023-01-01T07:14:11.385Z,1006.35
2023-01-01T07:15:11.369Z,1006.36
2023-01-01T07:16:13.364Z,1006.38
2023-01-01T07:17:11.352Z,1006.38
2023-01-01T07:18:11.343Z,1006.36
2023-01-01T07:19:11.342Z,1006.39
2023-01-01T07:20:11.317Z,1006.40
2023-01-01T07:21:11.334Z,1006.36
2023-01-01T07:22:11.302Z,1006.42
2023-01-01T07:23:11.304Z,1006.44
2023-01-01T07:24:11.288Z,1006.43
2023-01-01T07:25:11.269Z,1006.45
2023-01-01T07:26:11.267Z,1006.49
2023-01-01T07:27:11.249Z,1006.57
2023-01-01T07:28:11.246Z,1006.58
2023-01-01T07:29:11.236Z,1006.61
2023-01-01T07:30:11.219Z,1006.63
2023-01-01T07:31:11.264Z,1006.63
2023-01-01T07:32:11.204Z,1006.64
2023-01-01T07:33:11.198Z,1006.60
2023-01-01T07:34:11.186Z,1006.59
2023-01-01T07:35:11.174Z,1006.66
2023-01-01T07:36:11.166Z,1006.68
2023-01-01T07:37:11.149Z,1006.78
2023-01-01T07:38:11.140Z,1006.78
2023-01-01T07:39:11.149Z,1006.86
2023-01-01T07:40:11.133Z,1006.89
2023-01-01T07:41:11.111Z,1006.86
2023-01-01T07:42:11.284Z,1006.93
2023-01-01T07:43:11.099Z,1006.93
2023-01-01T07:44:11.080Z,1006.92
2023-01-01T07:45:11.076Z,1006.95
2023-01-01T07:46:11.116Z,1007.02
2023-01-01T07:47:11.051Z,1007.03
2023-01-01T07:48:11.042Z,1007.04
2023-01-01T07:49:11.041Z,1007.08
2023-01-01T07:50:11.027Z,1007.08
2023-01-01T07:51:11.032Z,1007.16
2023-01-01T07:52:11.015Z,1007.13
2023-01-01T07:53:10.991Z,1007.16
2023-01-01T07:54:10.982Z,1007.16
2023-01-01T07:55:10.967Z,1007.20
2023-01-01T07:56:10.969Z,1007.21
2023-01-01T07:57:10.956Z,1007.19
2023-01-01T07:58:10.946Z,1007.24
2023-01-01T07:59:14.392Z,1007.24
2023-01-01T08:00:10.917Z,1007.29
2023-01-01T08:01:11.055Z,1007.21
2023-01-01T08:02:10.995Z,1007.21
2023-01-01T08:03:10.924Z,1007.12
2023-01-01T08:04:10.881Z,1007.13
2023-01-01T08:05:10.880Z,1007.16
2023-01-01T08:06:10.864Z,1007.16
2023-01-01T08:07:10.859Z,1007.11
2023-01-01T08:08:10.846Z,1007.08
2023-01-01T08:09:10.838Z,1007.05
2023-01-01T08:10:10.820Z,1007.07
2023-01-01T08:11:10.809Z,1007.14
2023-01-01T08:12:10.803Z,1007.16
2023-01-01T08:13:10.797Z,1007.22
2023-01-01T08:14:10.787Z,1007.27
2023-01-01T08:15:10.784Z,1007.31
2023-01-01T08:16:10.783Z,1007.33
2023-01-01T08:17:10.773Z,1007.37
2023-01-01T08:18:10.750Z,1007.36
2023-01-01T08:19:10.735Z,1007.36
2023-01-01T08:20:10.733Z,1007.34
2023-01-01T08:21:10.719Z,1007.31
2023-01-01T08:22:10.707Z,1007.33
2023-01-01T08:23:10.699Z,1007.34
2023-01-01T08:24:10.694Z,1007.33
2023-01-01T08:25:10.692Z,1007.33
2023-01-01T08:26:10.669Z,1007.37
2023-01-01T08:27:10.663Z,1007.41
2023-01-01T08:28:10.652Z,1007.43
2023-01-01T08:29:10.642Z,1007.45
2023-01-01T08:30:10.647Z,1007.47
2023-01-01T08:31:10.628Z,1007.46
2023-01-01T08:32:10.617Z,1007.55
2023-01-01T08:33:10.606Z,1007.51
2023-01-01T08:34:10.591Z,1007.54
2023-01-01T08:35:10.582Z,1007.53
2023-01-01T08:36:10.568Z,1007.55
2023-01-01T08:37:10.589Z,1007.55
2023-01-01T08:38:10.560Z,1007.57
2023-01-01T08:39:10.546Z,1007.68
2023-01-01T08:40:10.566Z,1007.69
2023-01-01T08:41:10.538Z,1007.71
2023-01-01T08:42:12.524Z,1007.68
2023-01-01T08:43:10.502Z,1007.64
2023-01-01T08:44:10.509Z,1007.66
2023-01-01T08:45:10.507Z,1007.62
2023-01-01T08:46:10.497Z,1007.58
2023-01-01T08:47:10.477Z,1007.65
2023-01-01T08:48:10.467Z,1007.68
2023-01-01T08:49:10.456Z,1007.67
2023-01-01T08:50:10.455Z,1007.70
2023-01-01T08:51:10.433Z,1007.72
2023-01-01T08:52:10.421Z,1007.75
2023-01-01T08:53:10.411Z,1007.80
2023-01-01T08:54:10.404Z,1007.80
2023-01-01T08:55:10.399Z,1007.88
2023-01-01T08:56:10.402Z,1008.01
2023-01-01T08:57:10.384Z,1007.99
2023-01-01T08:58:10.364Z,1008.03
2023-01-01T08:59:10.361Z,1008.07
2023-01-01T09:00:10.347Z,1008.07
2023-01-01T09:01:10.358Z,1007.98
2023-01-01T09:02:10.526Z,1008.03
2023-01-01T09:03:10.513Z,1007.98
2023-01-01T09:04:15.285Z,1008.04
2023-01-01T09:05:10.313Z,1008.01
2023-01-01T09:06:10.291Z,1008.07
2023-01-01T09:07:10.290Z,1008.09
2023-01-01T09:08:10.273Z,1008.12
2023-01-01T09:09:10.269Z,1008.10
2023-01-01T09:10:10.255Z,1008.08
2023-01-01T09:11:10.253Z,1008.11
2023-01-01T09:12:10.242Z,1008.06
2023-01-01T09:13:10.231Z,1008.09
2023-01-01T09:14:10.229Z,1008.08
2023-01-01T09:15:10.212Z,1008.07
2023-01-01T09:16:10.259Z,1008.11
2023-01-01T09:17:10.204Z,1008.20
2023-01-01T09:18:10.187Z,1008.16
2023-01-01T09:19:10.181Z,1008.24
2023-01-01T09:20:10.171Z,1008.37
2023-01-01T09:21:10.168Z,1008.38
2023-01-01T09:22:10.153Z,1008.42
2023-01-01T09:23:10.141Z,1008.46
2023-01-01T09:24:10.143Z,1008.49
2023-01-01T09:25:10.127Z,1008.49
2023-01-01T09:26:10.124Z,1008.47
2023-01-01T09:27:10.110Z,1008.51
2023-01-01T09:28:10.095Z,1008.50
2023-01-01T09:29:10.091Z,1008.54
2023-01-01T09:30:10.080Z,1008.49
2023-01-01T09:31:10.116Z,1008.53
2023-01-01T09:32:10.065Z,1008.49
2023-01-01T09:33:10.078Z,1008.58
2023-01-01T09:34:10.048Z,1008.58
2023-01-01T09:35:10.037Z,1008.58
2023-01-01T09:36:10.026Z,1008.62
2023-01-01T09:37:10.031Z,1008.70
2023-01-01T09:38:10.007Z,1008.67
2023-01-01T09:39:10.018Z,1008.69
2023-01-01T09:40:09.991Z,1008.64
2023-01-01T09:41:09.988Z,1008.67
2023-01-01T09:42:09.993Z,1008.65
2023-01-01T09:43:09.969Z,1008.55
2023-01-01T09:44:09.968Z,1008.53
2023-01-01T09:45:09.958Z,1008.61
2023-01-01T09:46:10.046Z,1008.56
2023-01-01T09:47:09.936Z,1008.56
2023-01-01T09:48:09.928Z,1008.54
2023-01-01T09:49:09.918Z,1008.58
2023-01-01T09:50:09.913Z,1008.56
2023-01-01T09:51:09.895Z,1008.63
2023-01-01T09:52:09.890Z,1008.64
2023-01-01T09:53:09.888Z,1008.65
2023-01-01T09:54:09.871Z,1008.62
2023-01-01T09:55:09.867Z,1008.61
2023-01-01T09:56:09.852Z,1008.60
2023-01-01T09:57:13.448Z,1008.55
2023-01-01T09:58:09.840Z,1008.50
2023-01-01T09:59:09.834Z,1008.46
2023-01-01T10:00:09.823Z,1008.47
2023-01-01T10:01:09.862Z,1008.49
2023-01-01T10:02:09.969Z,1008.45
2023-01-01T10:03:09.799Z,1008.44
2023-01-01T10:04:09.829Z,1008.47
2023-01-01T10:05:09.786Z,1008.44
2023-01-01T10:06:09.769Z,1008.50
2023-01-01T10:07:09.762Z,1008.49
2023-01-01T10:08:09.755Z,1008.55
2023-01-01T10:09:09.763Z,1008.56
2023-01-01T10:10:09.794Z,1008.55
2023-01-01T10:11:09.748Z,1008.52
2023-01-01T10:12:09.722Z,1008.47
2023-01-01T10:13:09.716Z,1008.52
2023-01-01T10:14:09.708Z,1008.51
2023-01-01T10:15:09.697Z,1008.50
2023-01-01T10:16:09.720Z,1008.48
2023-01-01T10:17:09.741Z,1008.48
2023-01-01T10:18:09.676Z,1008.43
2023-01-01T10:19:09.665Z,1008.43
2023-01-01T10:20:09.654Z,1008.41
2023-01-01T10:21:09.660Z,1008.36
2023-01-01T10:22:09.639Z,1008.42
2023-01-01T10:23:09.630Z,1008.42
2023-01-01T10:24:09.625Z,1008.45
2023-01-01T10:25:09.615Z,1008.42
2023-01-01T10:26:09.604Z,1008.47
2023-01-01T10:27:09.602Z,1008.44
2023-01-01T10:28:09.593Z,1008.43
2023-01-01T10:29:09.590Z,1008.41
2023-01-01T10:30:09.569Z,1008.45
2023-01-01T10:31:09.569Z,1008.41
2023-01-01T10:32:09.597Z,1008.45
2023-01-01T10:33:09.546Z,1008.47
2023-01-01T10:34:09.547Z,1008.43
2023-01-01T10:35:09.531Z,1008.47
2023-01-01T10:36:09.524Z,1008.42
2023-01-01T10:37:09.528Z,1008.40
2023-01-01T10:38:09.514Z,1008.46
2023-01-01T10:39:09.520Z,1008.41
2023-01-01T10:40:09.514Z,1008.40
2023-01-01T10:41:13.775Z,1008.44
2023-01-01T10:42:09.475Z,1008.41
2023-01-01T10:43:09.463Z,1008.45
2023-01-01T10:44:09.460Z,1008.43
2023-01-01T10:45:09.450Z,1008.44
2023-01-01T10:46:09.469Z,1008.43
2023-01-01T10:47:09.435Z,1008.41
2023-01-01T10:48:09.430Z,1008.44
2023-01-01T10:49:09.420Z,1008.42
2023-01-01T10:50:09.409Z,1008.38
2023-01-01T10:51:09.409Z,1008.50
2023-01-01T10:52:09.393Z,1008.43
2023-01-01T10:53:09.384Z,1008.42
2023-01-01T10:54:09.377Z,1008.44
2023-01-01T10:55:09.372Z,1008.39
2023-01-01T10:56:09.364Z,1008.43
2023-01-01T10:57:09.359Z,1008.43
2023-01-01T10:58:09.342Z,1008.41
2023-01-01T10:59:09.345Z,1008.44
2023-01-01T11:00:09.356Z,1008.45
2023-01-01T11:01:09.441Z,1008.50
2023-01-01T11:02:09.443Z,1008.51
2023-01-01T11:03:09.371Z,1008.53
2023-01-01T11:04:09.309Z,1008.60
2023-01-01T11:05:12.947Z,1008.59
2023-01-01T11:06:09.282Z,1008.53
2023-01-01T11:07:09.285Z,1008.59
2023-01-01T11:08:09.260Z,1008.61
2023-01-01T11:09:09.262Z,1008.54
2023-01-01T11:10:09.249Z,1008.49
2023-01-01T11:11:09.244Z,1008.50
2023-01-01T11:12:24.551Z,1008.48
2023-01-01T11:13:09.253Z,1008.45
2023-01-01T11:14:09.214Z,1008.38
2023-01-01T11:15:09.220Z,1008.41
2023-01-01T11:16:09.204Z,1008.36
2023-01-01T11:17:09.231Z,1008.32
2023-01-01T11:18:09.181Z,1008.30
2023-01-01T11:19:09.188Z,1008.25
2023-01-01T11:20:09.168Z,1008.26
2023-01-01T11:21:09.169Z,1008.26
2023-01-01T11:22:09.158Z,1008.21
2023-01-01T11:23:09.155Z,1008.22
2023-01-01T11:24:09.143Z,1008.25
2023-01-01T11:25:09.129Z,1008.22
2023-01-01T11:26:09.127Z,1008.22
2023-01-01T11:27:09.120Z,1008.20
2023-01-01T11:28:09.112Z,1008.13
2023-01-01T11:29:09.117Z,1008.13
2023-01-01T11:30:09.092Z,1008.15
2023-01-01T11:31:09.098Z,1008.18
2023-01-01T11:32:09.087Z,1008.14
2023-01-01T11:33:09.067Z,1008.18
2023-01-01T11:34:09.067Z,1008.17
2023-01-01T11:35:09.053Z,1008.13
2023-01-01T11:36:09.047Z,1008.13
2023-01-01T11:37:09.049Z,1008.04
2023-01-01T11:38:09.030Z,1008.05
2023-01-01T11:39:09.035Z,1008.04
2023-01-01T11:40:09.016Z,1007.98
2023-01-01T11:41:09.014Z,1007.97
2023-01-01T11:42:09.009Z,1007.91
2023-01-01T11:43:08.996Z,1007.91
2023-01-01T11:44:08.986Z,1007.87
2023-01-01T11:45:08.979Z,1007.79
2023-01-01T11:46:09.036Z,1007.75
2023-01-01T11:47:08.962Z,1007.73
2023-01-01T11:48:08.965Z,1007.75
2023-01-01T11:49:08.959Z,1007.77
2023-01-01T11:50:08.964Z,1007.79
2023-01-01T11:51:08.939Z,1007.79
2023-01-01T11:52:08.931Z,1007.81
2023-01-01T11:53:08.921Z,1007.80
2023-01-01T11:54:08.914Z,1007.82
2023-01-01T11:55:08.907Z,1007.78
2023-01-01T11:56:08.897Z,1007.77
2023-01-01T11:57:08.896Z,1007.75
2023-01-01T11:58:09.692Z,1007.68
2023-01-01T11:59:08.875Z,1007.66
2023-01-01T12:00:08.871Z,1007.69
2023-01-01T12:01:08.913Z,1007.65
2023-01-01T12:02:08.869Z,1007.69
2023-01-01T12:03:08.846Z,1007.65
2023-01-01T12:04:08.945Z,1007.63
2023-01-01T12:05:08.837Z,1007.65
2023-01-01T12:06:08.828Z,1007.68
2023-01-01T12:07:08.823Z,1007.69
2023-01-01T12:08:08.808Z,1007.72
2023-01-01T12:09:11.950Z,1007.66
2023-01-01T12:10:08.809Z,1007.72
2023-01-01T12:11:08.795Z,1007.73
2023-01-01T12:12:08.788Z,1007.69
2023-01-01T12:13:08.773Z,1007.81
2023-01-01T12:14:08.768Z,1007.79
2023-01-01T12:15:08.765Z,1007.82
2023-01-01T12:16:08.781Z,1007.81
2023-01-01T12:17:08.746Z,1007.84
2023-01-01T12:18:08.740Z,1007.83
2023-01-01T12:19:08.737Z,1007.85
2023-01-01T12:20:08.717Z,1007.84
2023-01-01T12:21:08.725Z,1007.83
2023-01-01T12:22:08.707Z,1007.85
2023-01-01T12:23:08.697Z,1007.87
2023-01-01T12:24:08.693Z,1007.85
2023-01-01T12:25:08.681Z,1007.83
2023-01-01T12:26:08.678Z,1007.89
2023-01-01T12:27:10.972Z,1007.82
2023-01-01T12:28:08.661Z,1007.88
2023-01-01T12:29:08.659Z,1007.82
2023-01-01T12:30:08.642Z,1007.87
2023-01-01T12:31:08.707Z,1007.88
2023-01-01T12:32:08.630Z,1007.84
2023-01-01T12:33:08.877Z,1007.83
2023-01-01T12:34:08.608Z,1007.84
2023-01-01T12:35:08.606Z,1007.86
2023-01-01T12:36:08.597Z,1007.86
2023-01-01T12:37:08.604Z,1007.85
2023-01-01T12:38:15.749Z,1007.86
2023-01-01T12:40:17.002Z,1007.80
2023-01-01T12:41:12.535Z,1007.83
2023-01-01T12:43:16.520Z,1007.89
2023-01-01T12:44:16.457Z,1007.85
2023-01-01T12:46:20.423Z,1007.91
2023-01-01T12:47:20.384Z,1007.83
2023-01-01T12:49:13.346Z,1007.87
2023-01-01T12:50:13.246Z,1007.85
2023-01-01T12:52:17.205Z,1007.83
2023-01-01T12:53:17.180Z,1007.82
2023-01-01T12:55:21.143Z,1007.74
2023-01-01T12:56:23.414Z,1007.79
2023-01-01T12:58:25.071Z,1007.81
2023-01-01T12:59:25.067Z,1007.85
2023-01-01T13:01:33.430Z,1007.89
2023-01-01T13:02:29.295Z,1007.85
2023-01-01T13:04:32.947Z,1007.86
2023-01-01T13:05:32.925Z,1007.89
2023-01-01T13:07:36.866Z,1007.76
2023-01-01T13:08:36.860Z,1007.76
2023-01-01T13:10:40.812Z,1007.82
2023-01-01T13:11:44.958Z,1007.83
2023-01-01T13:13:44.842Z,1007.88
2023-01-01T13:14:44.731Z,1007.91
2023-01-01T13:16:48.706Z,1007.92
2023-01-01T13:17:48.690Z,1007.90
2023-01-01T13:19:52.661Z,1007.86
2023-01-01T13:20:52.631Z,1007.87
2023-01-01T13:22:56.570Z,1007.88
2023-01-01T13:23:56.555Z,1007.85
2023-01-01T13:26:00.507Z,1007.86
2023-01-01T13:27:01.146Z,1007.87
2023-01-01T13:28:53.366Z,1007.87
2023-01-01T13:29:53.351Z,1007.88
2023-01-01T13:31:57.302Z,1007.88
2023-01-01T13:32:57.304Z,1007.91
2023-01-01T13:35:01.284Z,1007.89
2023-01-01T13:36:01.221Z,1007.93
2023-01-01T13:38:05.176Z,1007.95
2023-01-01T13:39:05.161Z,1007.94
2023-01-01T13:41:09.112Z,1007.93
2023-01-01T13:42:09.099Z,1007.99
2023-01-01T13:44:13.040Z,1007.95
2023-01-01T13:45:13.028Z,1007.95
2023-01-01T13:47:16.997Z,1007.91
2023-01-01T13:48:16.977Z,1007.90
2023-01-01T13:50:20.921Z,1007.89
2023-01-01T13:51:54.857Z,1007.91
2023-01-01T13:53:24.906Z,1007.91
2023-01-01T13:54:26.904Z,1007.89
2023-01-01T13:56:28.884Z,1007.87
2023-01-01T13:57:28.878Z,1007.84
2023-01-01T13:59:21.757Z,1007.85
2023-01-01T14:00:21.734Z,1007.85
2023-01-01T14:02:25.856Z,1007.88
2023-01-01T14:03:25.672Z,1007.84
2023-01-01T14:05:29.621Z,1007.82
2023-01-01T14:06:29.619Z,1007.80
2023-01-01T14:08:33.545Z,1007.79
2023-01-01T14:09:33.537Z,1007.82